Flight Track Log - Related Links

Times and Time Zones

All times are in EDT time to prevent confusion due to time zone crossing. See the UAL571 flight status page for this flight to view local times or setup timezone preferences in your user account.

Time Position Orientation Groundspeed Altitude Reporting Facility
EDT Latitude Longitude Course Direction KTS MPH feet Rate Location/Type
Wed 07:22:11 AM 40.6167 -74.1833 246° West 211 243 2,000  Level New York TRACON
Wed 07:23:11 AM 40.5833 -74.2500 237° Southwest 268 308 4,000 2,521 Climbing New York TRACON
Wed 07:24:10 AM 40.6167 -74.3333 298° West 268 308 7,000 2,824 Climbing New York TRACON
Wed 07:25:10 AM 40.6500 -74.4167 298° West 273 314 9,600 2,000 Climbing New York TRACON
Wed 07:26:00 AM 40.7861 -75.1723 252° West  Level FlightAware Approximate
Wed 07:26:10 AM 40.7000 -74.5000 308° West 315 362 11,000  Level New York TRACON
Wed 07:27:00 AM 40.7660 -75.3187 246° West  Level FlightAware Approximate
Wed 07:27:11 AM 40.7833 -74.5833 323° Northwest 350 403 12,900  Level New York TRACON
Wed 07:28:17 AM 40.8533 -74.6778 314° West 385 443 15,100 1,887 Climbing New York Center
Wed 07:29:15 AM 40.8475 -74.7897 266° West 320 368 16,800 1,780 Climbing New York Center
Wed 07:30:15 AM 40.8156 -74.9250 253° West 350 403 18,600 1,488 Climbing New York Center
Wed 07:31:16 AM 40.7886 -75.0386 253° West 363 418 19,800 1,240 Climbing New York Center
Wed 07:32:16 AM 40.7567 -75.1733 253° West 377 434 21,100 1,240 Climbing New York Center
Wed 07:33:17 AM 40.7242 -75.3139 253° West 388 447 22,300 1,210 Climbing New York Center
Wed 07:34:15 AM 40.6917 -75.4511 253° West 393 452 23,500 1,160 Climbing New York Center
Wed 07:35:16 AM 40.6567 -75.5967 252° West 404 465 24,600 1,041 Climbing New York Center
Wed 07:36:16 AM 40.6217 -75.7389 252° West 409 471 25,600 958 Climbing New York Center
Wed 07:37:15 AM 40.5800 -75.8864 250° West 422 486 26,500 958 Climbing New York Center
Wed 07:38:15 AM 40.5167 -76.0428 242° Southwest 433 498 27,500 942 Climbing New York Center
Wed 07:39:16 AM 40.4603 -76.1883 243° Southwest 438 504 28,400 893 Climbing New York Center
Wed 07:40:16 AM 40.4036 -76.3311 243° Southwest 443 510 29,300 694 Climbing New York Center
Wed 07:41:17 AM 40.3508 -76.4767 245° Southwest 443 510 29,800 800 Climbing New York Center
Wed 07:42:16 AM 40.3228 -76.6214 256° West 443 510 30,900 1,008 Climbing New York Center
Wed 07:43:16 AM 40.2839 -76.7761 252° West 448 516 31,800 1,000 Climbing New York Center
Wed 07:44:16 AM 40.2447 -76.9278 251° West 448 516 32,900 702 Climbing New York Center
Wed 07:46:24 AM 40.1583 -77.2578 251° West 444 511 34,000 351 Climbing Cleveland Center
Wed 07:47:24 AM 40.1208 -77.4064 252° West 438 504 34,000  Level Cleveland Center
Wed 07:48:24 AM 40.1064 -77.5619 263° West 438 504 34,000  Level Cleveland Center
Wed 07:49:24 AM 40.1125 -77.7192 273° West 433 498 34,000  Level Cleveland Center
Wed 07:50:24 AM 40.1164 -77.8764 272° West 433 498 34,000  Level Cleveland Center
Wed 07:51:24 AM 40.1178 -78.0339 271° West 438 504 34,000  Level Cleveland Center
Wed 07:52:24 AM 40.1192 -78.1939 271° West 438 504 34,000  Level Cleveland Center
Wed 07:53:24 AM 40.1244 -78.3539 273° West 438 504 34,000  Level Cleveland Center
Wed 07:54:24 AM 40.1275 -78.5086 272° West 438 504 34,000  Level Cleveland Center
Wed 07:55:24 AM 40.1303 -78.6633 271° West 438 504 34,000  Level Cleveland Center
Wed 07:56:24 AM 40.1328 -78.8181 271° West 438 504 34,000  Level Cleveland Center
Wed 07:57:24 AM 40.1372 -78.9753 272° West 438 504 34,000  Level Cleveland Center
Wed 07:58:24 AM 40.1414 -79.1303 272° West 438 504 34,000 -50 Level Cleveland Center
Wed 07:59:24 AM 40.1431 -79.2850 271° West 438 504 33,900  Descending Cleveland Center
Wed 08:00:24 AM 40.1489 -79.4261 273° West 438 504 34,000 50 Climbing Cleveland Center
Wed 08:01:24 AM 40.1503 -79.5808 271° West 438 504 34,000  Level Cleveland Center
Wed 08:02:24 AM 40.1517 -79.7411 271° West 438 504 34,000  Level Cleveland Center
Wed 08:03:24 AM 40.1528 -79.8958 271° West 438 504 34,000  Level Cleveland Center
Wed 08:04:24 AM 40.1536 -80.0725 270° West 443 510 34,000  Level Cleveland Center
Wed 08:05:24 AM 40.1542 -80.2300 270° West 442 509 34,000  Level Cleveland Center
Wed 08:06:24 AM 40.1567 -80.3686 271° West 436 502 34,000  Level Cleveland Center
Wed 08:07:24 AM 40.1589 -80.5233 271° West 436 502 34,000  Level Cleveland Center
Wed 08:08:24 AM 40.1608 -80.6808 271° West 436 502 34,000  Level Cleveland Center
Wed 08:09:24 AM 40.1606 -80.8383 270° West 436 502 34,000  Level Cleveland Center
Wed 08:10:24 AM 40.1603 -80.9961 270° West 436 502 34,000  Level Cleveland Center
Wed 08:12:00 AM 40.1572 -81.2611 269° West 435 501 34,000  Level Indianapolis Center
Wed 08:13:02 AM 40.1575 -81.4200 270° West 434 499 34,000  Level Indianapolis Center
Wed 08:14:04 AM 40.1569 -81.5797 270° West 434 499 34,000  Level Indianapolis Center
Wed 08:15:06 AM 40.1558 -81.7389 270° West 434 499 34,000 -49 Level Indianapolis Center
Wed 08:16:07 AM 40.1547 -81.9031 270° West 431 496 33,900 -49 Descending Indianapolis Center
Wed 08:17:09 AM 40.1536 -82.0597 270° West 429 494 33,900  Level Indianapolis Center
Wed 08:18:11 AM 40.1525 -82.2167 270° West 430 495 33,900  Level Indianapolis Center
Wed 08:19:13 AM 40.1508 -82.3736 269° West 428 493 33,900  Level Indianapolis Center
Wed 08:20:14 AM 40.1492 -82.5294 269° West 426 490 33,900 -390 Level Indianapolis Center
Wed 08:21:16 AM 40.1475 -82.6853 269° West 427 491 33,100 -968 Descending Indianapolis Center
Wed 08:22:18 AM 40.1439 -82.8683 269° West 431 496 31,900 -581 Descending Indianapolis Center
Wed 08:23:20 AM 40.1425 -83.0281 269° West 437 503 31,900  Level Indianapolis Center
Wed 08:24:21 AM 40.1392 -83.1853 268° West 434 499 31,900  Level Indianapolis Center
Wed 08:25:23 AM 40.1369 -83.3419 269° West 433 498 31,900  Level Indianapolis Center
Wed 08:26:25 AM 40.1333 -83.4986 268° West 433 498 31,900  Level Indianapolis Center
Wed 08:27:26 AM 40.1300 -83.6547 268° West 432 497 31,900  Level Indianapolis Center
Wed 08:28:28 AM 40.1256 -83.8367 268° West 430 495 31,900  Level Indianapolis Center
Wed 08:29:30 AM 40.1217 -83.9919 268° West 427 491 31,900  Level Indianapolis Center
Wed 08:30:32 AM 40.1189 -84.1478 269° West 426 490 31,900  Level Indianapolis Center
Wed 08:31:33 AM 40.1144 -84.3039 268° West 428 493 31,900  Level Indianapolis Center
Wed 08:32:35 AM 40.1089 -84.4608 267° West 431 496 31,900  Level Indianapolis Center
Wed 08:33:37 AM 40.1039 -84.6183 268° West 431 496 31,900  Level Indianapolis Center
Wed 08:34:38 AM 40.1003 -84.7753 268° West 431 496 31,900 49 Level Indianapolis Center
Wed 08:35:40 AM 40.0944 -84.9433 267° West 432 497 32,000 48 Climbing Indianapolis Center
Wed 08:36:42 AM 40.0883 -85.0992 267° West 432 497 32,000 194 Level Indianapolis Center
Wed 08:37:44 AM 40.0836 -85.2550 268° West 432 497 32,400 585 Climbing Indianapolis Center
Wed 08:38:45 AM 40.0778 -85.4108 267° West 433 498 33,200 780 Climbing Indianapolis Center
Wed 08:39:47 AM 40.0708 -85.5969 267° West 429 494 34,000 387 Climbing Indianapolis Center
Wed 08:40:49 AM 40.0644 -85.7486 267° West 423 487 34,000  Level Indianapolis Center
Wed 08:42:03 AM 40.0569 -85.9333 267° West 427 491 34,000  Level Indianapolis Center
Wed 08:43:05 AM 40.0508 -86.0844 267° West 423 487 34,000 -49 Level Indianapolis Center
Wed 08:44:06 AM 40.0442 -86.2350 267° West 422 486 33,900  Descending Indianapolis Center
Wed 08:45:08 AM 40.0358 -86.4161 267° West 424 488 34,000 48 Climbing Indianapolis Center
Wed 08:46:10 AM 40.0300 -86.5681 267° West 424 488 34,000  Level Indianapolis Center
Wed 08:47:12 AM 40.0214 -86.7203 266° West 425 489 34,000  Level Indianapolis Center
Wed 08:48:14 AM 40.0142 -86.8722 266° West 425 489 34,000  Level Indianapolis Center
Wed 08:49:16 AM 40.0067 -87.0242 266° West 423 487 34,000  Level Indianapolis Center
Wed 08:50:17 AM 39.9981 -87.1767 266° West 423 487 34,000  Level Indianapolis Center
Wed 08:51:19 AM 39.9886 -87.3600 266° West 425 489 34,000  Level Indianapolis Center
Wed 08:52:21 AM 39.9800 -87.5144 266° West 427 491 34,000  Level Indianapolis Center
Wed 08:53:07 AM 39.9714 -87.6375 265° West 426 490 34,000  Level Chicago Center
Wed 08:54:09 AM 39.9642 -87.7892 266° West 423 487 34,000 -48 Level Chicago Center
Wed 08:55:11 AM 39.9547 -87.9414 265° West 422 486 33,900  Descending Chicago Center
Wed 08:56:13 AM 39.9456 -88.0914 265° West 419 482 34,000 48 Climbing Chicago Center
Wed 08:57:15 AM 39.9372 -88.2378 266° West 417 480 34,000  Level Chicago Center
Wed 08:58:17 AM 39.9292 -88.3878 266° West 415 478 34,000 -48 Level Chicago Center
Wed 08:59:19 AM 39.9164 -88.5697 265° West 418 481 33,900  Descending Chicago Center
Wed 09:00:23 AM 39.9056 -88.7225 265° West 422 486 34,000 48 Climbing Chicago Center
Wed 09:01:25 AM 39.8958 -88.8756 265° West 423 487 34,000  Level Chicago Center
Wed 09:02:27 AM 39.8847 -89.0267 265° West 421 484 34,000  Level Chicago Center
Wed 09:03:43 AM 39.8711 -89.2400 265° West 422 486 34,000  Level Kansas City Center
Wed 09:04:44 AM 39.8594 -89.3919 264° West 421 484 34,000  Level Kansas City Center
Wed 09:05:46 AM 39.8486 -89.5431 265° West 420 483 34,000  Level Kansas City Center
Wed 09:06:47 AM 39.8419 -89.6969 267° West 422 486 34,000  Level Kansas City Center
Wed 09:07:49 AM 39.8589 -89.8544 278° West 437 503 34,000  Level Kansas City Center
Wed 09:08:51 AM 39.8772 -90.0117 279° West 440 506 34,000 -49 Level Kansas City Center
Wed 09:09:52 AM 39.8942 -90.1678 278° West 436 502 33,900 -49 Descending Kansas City Center
Wed 09:10:54 AM 39.9106 -90.3222 278° West 433 498 33,900 49 Level Kansas City Center
Wed 09:11:55 AM 39.9272 -90.4781 278° West 432 497 34,000 49 Climbing Kansas City Center
Wed 09:12:57 AM 39.9444 -90.6347 278° West 433 498 34,000  Level Kansas City Center
Wed 09:13:59 AM 39.9650 -90.8175 278° West 427 491 34,000  Level Kansas City Center
Wed 09:15:00 AM 39.9792 -90.9689 277° West 422 486 34,000  Level Kansas City Center
Wed 09:16:02 AM 39.9936 -91.1158 277° West 417 480 34,000  Level Kansas City Center
Wed 09:17:03 AM 40.0092 -91.2658 278° West 419 482 34,000  Level Kansas City Center
Wed 09:18:05 AM 40.0247 -91.4175 278° West 422 486 34,000  Level Kansas City Center
Wed 09:19:07 AM 40.0397 -91.5706 277° West 427 491 34,000  Level Kansas City Center
Wed 09:20:09 AM 40.0575 -91.7533 277° West 427 491 34,000  Level Kansas City Center
Wed 09:21:10 AM 40.0714 -91.9058 277° West 427 491 34,000 -49 Level Kansas City Center
Wed 09:22:12 AM 40.0861 -92.0586 277° West 427 491 33,900  Descending Kansas City Center
Wed 09:23:14 AM 40.1006 -92.2119 277° West 427 491 34,000 48 Climbing Kansas City Center
Wed 09:24:16 AM 40.1161 -92.3781 277° West 428 493 34,000  Level Kansas City Center
Wed 09:25:18 AM 40.1294 -92.5253 277° West 427 491 34,000  Level Kansas City Center
Wed 09:26:19 AM 40.1386 -92.6967 274° West 426 490 34,000 -49 Level Kansas City Center
Wed 09:27:21 AM 40.1422 -92.8439 272° West 424 488 33,900  Descending Kansas City Center
Wed 09:28:23 AM 40.1486 -93.0150 273° West 423 487 34,000 48 Climbing Kansas City Center
Wed 09:29:25 AM 40.1528 -93.1706 272° West 425 489 34,000  Level Kansas City Center
Wed 09:30:27 AM 40.1572 -93.3242 272° West 425 489 34,000  Level Kansas City Center
Wed 09:31:29 AM 40.1608 -93.4772 272° West 426 490 34,000  Level Kansas City Center
Wed 09:32:31 AM 40.1644 -93.6317 272° West 427 491 34,000  Level Kansas City Center
Wed 09:33:33 AM 40.1689 -93.7844 272° West 426 490 34,000  Level Kansas City Center
Wed 09:34:35 AM 40.1736 -93.9667 272° West 422 486 34,000 -48 Level Kansas City Center
Wed 09:35:37 AM 40.1756 -94.1178 271° West 417 480 33,900  Descending Kansas City Center
Wed 09:36:39 AM 40.1781 -94.2597 271° West 412 474 34,000 49 Climbing Kansas City Center
Wed 09:37:40 AM 40.1825 -94.4286 272° West 417 480 34,000  Level Kansas City Center
Wed 09:38:42 AM 40.1844 -94.5736 271° West 417 480 34,000  Level Kansas City Center
Wed 09:39:44 AM 40.1878 -94.7436 272° West 420 483 34,000  Level Kansas City Center
Wed 09:40:46 AM 40.1892 -94.8900 271° West 421 484 34,000  Level Kansas City Center
Wed 09:42:00 AM 40.1897 -95.0903 270° West 420 483 34,000  Level Minneapolis Center
Wed 09:43:13 AM 40.1919 -95.2411 271° West 417 480 34,000 -44 Level Minneapolis Center
Wed 09:44:15 AM 40.1944 -95.4197 271° West 411 473 33,900 -48 Descending Minneapolis Center
Wed 09:45:17 AM 40.1953 -95.5719 270° West 415 478 33,900 48 Level Minneapolis Center
Wed 09:46:19 AM 40.1969 -95.7231 271° West 415 478 34,000 49 Climbing Minneapolis Center
Wed 09:47:20 AM 40.1983 -95.8464 271° West 419 482 34,000  Level Minneapolis Center
Wed 09:48:22 AM 40.1994 -96.0289 271° West 418 481 34,000  Level Minneapolis Center
Wed 09:49:23 AM 40.1986 -96.2131 270° West 420 483 34,000  Level Minneapolis Center
Wed 09:50:25 AM 40.1794 -96.3642 261° West 419 482 34,000 -48 Level Minneapolis Center
Wed 09:51:27 AM 40.1614 -96.5147 261° West 419 482 33,900  Descending Minneapolis Center
Wed 09:52:28 AM 40.1461 -96.6328 260° West 415 478 34,000 293 Climbing Minneapolis Center
Wed 09:53:30 AM 40.1236 -96.8114 261° West 413 475 34,500 439 Climbing Minneapolis Center
Wed 09:54:31 AM 40.1086 -96.9331 261° West 419 482 34,900 585 Climbing Minneapolis Center
Wed 09:55:33 AM 40.0839 -97.1133 260° West 421 484 35,700 532 Climbing Minneapolis Center
Wed 09:56:35 AM 40.0642 -97.2647 260° West 422 486 36,000 145 Climbing Minneapolis Center
Wed 09:57:37 AM 40.0433 -97.4244 260° West 422 486 36,000  Level Minneapolis Center
Wed 09:58:38 AM 40.0225 -97.5747 260° West 421 484 36,000  Level Minneapolis Center
Wed 09:59:40 AM 40.0022 -97.7250 260° West 420 483 36,000  Level Minneapolis Center
Wed 10:00:42 AM 39.9767 -97.9061 260° West 421 484 36,000  Level Minneapolis Center
Wed 10:01:43 AM 39.9561 -98.0569 260° West 422 486 36,000  Level Minneapolis Center
Wed 10:02:45 AM 39.9358 -98.2081 260° West 422 486 36,000  Level Minneapolis Center
Wed 10:03:46 AM 39.9186 -98.3272 259° West 420 483 36,000  Level Minneapolis Center
Wed 10:04:48 AM 39.8922 -98.5061 259° West 418 481 36,000  Level Minneapolis Center
Wed 10:05:50 AM 39.8703 -98.6567 259° West 421 484 36,000  Level Minneapolis Center
Wed 10:06:52 AM 39.8461 -98.8253 259° West 422 486 36,000  Level Minneapolis Center
Wed 10:07:38 AM 39.8314 -98.9303 260° West 426 490 36,000  Level Denver Center
Wed 10:08:40 AM 39.8089 -99.0819 259° West 427 491 36,000  Level Denver Center
Wed 10:09:41 AM 39.7853 -99.2350 259° West 430 495 36,000  Level Denver Center
Wed 10:10:43 AM 39.7628 -99.3883 259° West 430 495 36,000  Level Denver Center
Wed 10:11:45 AM 39.7353 -99.5700 259° West 427 491 36,000  Level Denver Center
Wed 10:12:46 AM 39.7117 -99.7217 259° West 428 493 36,000  Level Denver Center
Wed 10:13:48 AM 39.6881 -99.8731 259° West 427 491 36,000  Level Denver Center
Wed 10:14:50 AM 39.6653 -100.0175 258° West 420 483 36,000  Level Denver Center
Wed 10:15:51 AM 39.6389 -100.1822 258° West 418 481 36,000 -49 Level Denver Center
Wed 10:16:53 AM 39.6167 -100.3203 258° West 410 472 35,900  Descending Denver Center
Wed 10:17:55 AM 39.5944 -100.4628 259° West 415 478 36,000 48 Climbing Denver Center
Wed 10:18:57 AM 39.5661 -100.6272 257° West 418 481 36,000  Level Denver Center
Wed 10:19:58 AM 39.5442 -100.7697 259° West 419 482 36,000  Level Denver Center
Wed 10:21:00 AM 39.5164 -100.9344 258° West 419 482 36,000  Level Denver Center
Wed 10:22:02 AM 39.4922 -101.0764 258° West 421 484 36,000  Level Denver Center
Wed 10:23:04 AM 39.4644 -101.2408 258° West 420 483 36,000  Level Denver Center
Wed 10:24:06 AM 39.4408 -101.3808 258° West 418 481 36,000  Level Denver Center
Wed 10:25:08 AM 39.4172 -101.5231 258° West 422 486 36,000  Level Denver Center
Wed 10:26:09 AM 39.3858 -101.6858 256° West 421 484 36,000  Level Denver Center
Wed 10:27:11 AM 39.3389 -101.8206 246° West 430 495 36,000  Level Denver Center
Wed 10:28:13 AM 39.2811 -101.9697 243° Southwest 429 494 36,000  Level Denver Center
Wed 10:29:15 AM 39.2308 -102.1000 244° Southwest 426 490 36,000  Level Denver Center
Wed 10:30:17 AM 39.1728 -102.2508 244° Southwest 422 486 36,000  Level Denver Center
Wed 10:31:19 AM 39.1222 -102.3783 243° Southwest 420 483 36,000  Level Denver Center
Wed 10:32:21 AM 39.0636 -102.5289 243° Southwest 421 484 36,000  Level Denver Center
Wed 10:33:23 AM 39.0139 -102.6556 243° Southwest 418 481 36,000  Level Denver Center
Wed 10:34:25 AM 38.9564 -102.8019 243° Southwest 413 475 36,000  Level Denver Center
Wed 10:35:27 AM 38.9056 -102.9269 242° Southwest 413 475 36,000  Level Denver Center
Wed 10:36:41 AM 38.8475 -103.0742 243° Southwest 413 475 36,000  Level Denver Center
Wed 10:37:44 AM 38.7819 -103.2408 243° Southwest 411 473 36,000  Level Denver Center
Wed 10:38:46 AM 38.7314 -103.3664 243° Southwest 413 475 36,000  Level Denver Center
Wed 10:39:48 AM 38.6714 -103.5114 242° Southwest 414 476 36,000  Level Denver Center
Wed 10:40:50 AM 38.6211 -103.6392 243° Southwest 417 480 36,000  Level Denver Center
Wed 10:41:52 AM 38.5694 -103.7622 242° Southwest 414 476 36,000  Level Denver Center
Wed 10:42:54 AM 38.5097 -103.9069 242° Southwest 413 475 36,000  Level Denver Center
Wed 10:44:08 AM 38.4422 -104.0728 243° Southwest 413 475 36,000  Level Denver Center
Wed 10:45:10 AM 38.3914 -104.1961 242° Southwest 412 474 36,000  Level Denver Center
Wed 10:46:12 AM 38.3314 -104.3397 242° Southwest 412 474 36,000  Level Denver Center
Wed 10:47:14 AM 38.2839 -104.4639 244° Southwest 411 473 36,000  Level Denver Center
Wed 10:48:16 AM 38.2422 -104.6156 251° West 409 471 36,000  Level Denver Center
Wed 10:49:18 AM 38.2044 -104.7456 250° West 409 471 36,000  Level Denver Center
Wed 10:50:21 AM 38.1619 -104.8958 250° West 407 468 36,000  Level Denver Center
Wed 10:51:23 AM 38.1267 -105.0239 251° West 405 466 36,000  Level Denver Center
Wed 10:52:25 AM 38.0831 -105.1739 250° West 405 466 36,000  Level Denver Center
Wed 10:53:27 AM 38.0453 -105.3028 250° West 406 467 36,000 -48 Level Denver Center
Wed 10:54:29 AM 38.0022 -105.4506 250° West 403 464 35,900  Descending Denver Center
Wed 10:55:31 AM 37.9650 -105.5783 250° West 404 465 36,000 48 Climbing Denver Center
Wed 10:56:33 AM 37.9281 -105.7058 250° West 403 464 36,000  Level Denver Center
Wed 10:57:35 AM 37.8828 -105.8558 249° West 408 470 36,000  Level Denver Center
Wed 10:58:37 AM 37.8447 -105.9842 249° West 409 471 36,000  Level Denver Center
Wed 10:59:39 AM 37.8008 -106.1336 250° West 407 468 36,000  Level Denver Center
Wed 11:00:41 AM 37.7575 -106.2742 249° West 408 470 36,000  Level Denver Center
Wed 11:01:43 AM 37.7192 -106.4019 249° West 407 468 36,000  Level Denver Center
Wed 11:02:45 AM 37.6747 -106.5531 250° West 410 472 36,000  Level Denver Center
Wed 11:03:47 AM 37.6361 -106.6806 249° West 408 470 36,000  Level Denver Center
Wed 11:04:49 AM 37.5903 -106.8289 249° West 407 468 36,000  Level Denver Center
Wed 11:05:51 AM 37.5500 -106.9572 248° West 410 472 36,000  Level Denver Center
Wed 11:06:53 AM 37.5050 -107.1061 249° West 408 470 36,000  Level Denver Center
Wed 11:07:55 AM 37.4647 -107.2342 248° West 410 472 36,000  Level Denver Center
Wed 11:08:57 AM 37.4206 -107.3811 249° West 405 466 36,000  Level Denver Center
Wed 11:09:59 AM 37.3814 -107.5056 248° West 403 464 36,000  Level Denver Center
Wed 11:11:01 AM 37.3350 -107.6503 248° West 402 463 36,000  Level Denver Center
Wed 11:12:03 AM 37.2953 -107.7742 248° West 400 460 36,000  Level Denver Center
Wed 11:13:05 AM 37.2553 -107.8992 248° West 401 461 36,000  Level Denver Center
Wed 11:14:07 AM 37.2106 -108.0444 249° West 400 460 36,000  Level Denver Center
Wed 11:15:09 AM 37.1708 -108.1669 248° West 399 459 36,000  Level Denver Center
Wed 11:16:11 AM 37.1247 -108.3114 248° West 400 460 36,000  Level Denver Center
Wed 11:17:13 AM 37.0844 -108.4350 248° West 400 460 36,000  Level Denver Center
Wed 11:18:15 AM 37.0369 -108.5803 248° West 404 465 36,000  Level Denver Center
Wed 11:19:18 AM 36.9978 -108.7033 248° West 402 463 36,000  Level Denver Center
Wed 11:20:20 AM 36.9511 -108.8450 248° West 396 456 36,000  Level Denver Center
Wed 11:21:22 AM 36.9108 -108.9669 248° West 397 457 36,000  Level Denver Center
Wed 11:22:24 AM 36.8653 -109.1075 248° West 394 453 36,000  Level Denver Center
Wed 11:23:26 AM 36.8253 -109.2256 247° West 389 448 36,000  Level Denver Center
Wed 11:24:28 AM 36.7781 -109.3658 247° West 392 451 36,000  Level Denver Center
Wed 11:25:30 AM 36.7386 -109.4850 248° West 390 449 36,000  Level Denver Center
Wed 11:26:32 AM 36.6917 -109.6250 247° West 392 451 36,000  Level Denver Center
Wed 11:27:34 AM 36.6500 -109.7444 247° West 394 453 36,000  Level Denver Center
Wed 11:28:36 AM 36.6031 -109.8847 247° West 394 453 36,000  Level Denver Center
Wed 11:29:38 AM 36.5631 -110.0025 247° West 390 449 36,000  Level Denver Center
Wed 11:30:40 AM 36.5164 -110.1400 247° West 387 445 36,000  Level Denver Center
Wed 11:31:42 AM 36.4767 -110.2561 247° West 385 443 36,000  Level Denver Center
Wed 11:32:44 AM 36.4308 -110.3928 247° West 384 442 36,000  Level Denver Center
Wed 11:33:46 AM 36.3908 -110.5111 247° West 386 444 36,000  Level Denver Center
Wed 11:34:48 AM 36.3428 -110.6497 247° West 389 448 36,000  Level Denver Center
Wed 11:35:50 AM 36.3003 -110.7681 246° West 392 451 36,000  Level Denver Center
Wed 11:36:52 AM 36.2531 -110.9036 247° West 388 447 36,000  Level Denver Center
Wed 11:37:54 AM 36.2125 -111.0192 247° West 385 443 36,000  Level Denver Center
Wed 11:38:56 AM 36.1719 -111.1331 246° West 382 440 36,000 -48 Level Denver Center
Wed 11:39:58 AM 36.1261 -111.2656 247° West 378 435 35,900  Descending Denver Center
Wed 11:41:00 AM 36.0822 -111.3781 244° Southwest 378 435 36,000 48 Climbing Denver Center
Wed 11:42:02 AM 36.0283 -111.5089 243° Southwest 379 436 36,000  Level Denver Center
Wed 11:43:04 AM 35.9808 -111.6231 243° Southwest 384 442 36,000  Level Denver Center
Wed 11:43:35 AM 35.9522 -111.6844 240° Southwest 385 443 36,000  Level Los Angeles Center
Wed 11:44:38 AM 35.9044 -111.8014 243° Southwest 385 443 36,000  Level Los Angeles Center
Wed 11:45:40 AM 35.8469 -111.9425 243° Southwest 386 444 36,000  Level Los Angeles Center
Wed 11:46:42 AM 35.7989 -112.0603 243° Southwest 387 445 36,000  Level Los Angeles Center
Wed 11:47:44 AM 35.7478 -112.1803 242° Southwest 387 445 36,000  Level Los Angeles Center
Wed 11:48:46 AM 35.7017 -112.2919 243° Southwest 382 440 36,000  Level Los Angeles Center
Wed 11:49:48 AM 35.6547 -112.4081 244° Southwest 382 440 36,000  Level Los Angeles Center
Wed 11:50:50 AM 35.6064 -112.5247 243° Southwest 383 441 36,000  Level Los Angeles Center
Wed 11:51:52 AM 35.5444 -112.6706 242° Southwest 385 443 36,000  Level Los Angeles Center
Wed 11:52:55 AM 35.4953 -112.7883 243° Southwest 387 445 36,000  Level Los Angeles Center
Wed 11:53:57 AM 35.4472 -112.9064 243° Southwest 387 445 36,000  Level Los Angeles Center
Wed 11:54:59 AM 35.3933 -113.0242 241° Southwest 390 449 36,000  Level Los Angeles Center
Wed 11:56:01 AM 35.3447 -113.1422 243° Southwest 389 448 36,000  Level Los Angeles Center
Wed 11:57:03 AM 35.2947 -113.2592 242° Southwest 387 445 36,000  Level Los Angeles Center
Wed 11:58:05 AM 35.2442 -113.3761 242° Southwest 383 441 36,000  Level Los Angeles Center
Wed 11:59:07 AM 35.1939 -113.4919 242° Southwest 386 444 36,000  Level Los Angeles Center
Wed 12:00:09 PM 35.1369 -113.6303 243° Southwest 384 442 36,000  Level Los Angeles Center
Wed 12:01:11 PM 35.0878 -113.7439 242° Southwest 381 438 36,000  Level Los Angeles Center
Wed 12:02:13 PM 35.0381 -113.8583 242° Southwest 383 441 36,000  Level Los Angeles Center
Wed 12:03:15 PM 34.9850 -113.9725 240° Southwest 382 440 36,000  Level Los Angeles Center
Wed 12:04:17 PM 34.9361 -114.0881 243° Southwest 384 442 36,000  Level Los Angeles Center
Wed 12:05:20 PM 34.8761 -114.2250 242° Southwest 382 440 36,000  Level Los Angeles Center
Wed 12:06:22 PM 34.8253 -114.3392 242° Southwest 384 442 36,000  Level Los Angeles Center
Wed 12:07:24 PM 34.7756 -114.4528 242° Southwest 381 438 36,000  Level Los Angeles Center
Wed 12:08:26 PM 34.7242 -114.5672 241° Southwest 384 442 36,000  Level Los Angeles Center
Wed 12:09:28 PM 34.6731 -114.6797 241° Southwest 380 437 36,000  Level Los Angeles Center
Wed 12:10:30 PM 34.6194 -114.8003 242° Southwest 382 440 36,000 -48 Level Los Angeles Center
Wed 12:11:32 PM 34.5686 -114.9133 241° Southwest 381 438 35,900 -435 Descending Los Angeles Center
Wed 12:12:34 PM 34.5264 -115.0292 246° West 378 435 35,100 -968 Descending Los Angeles Center
Wed 12:13:36 PM 34.4794 -115.1683 248° West 375 432 33,900 -926 Descending Los Angeles Center
Wed 12:14:50 PM 34.4389 -115.2861 247° West 376 433 33,000 -876 Descending Los Angeles Center
Wed 12:15:53 PM 34.3906 -115.4278 248° West 380 437 31,900 -1,008 Descending Los Angeles Center
Wed 12:16:55 PM 34.3514 -115.5442 248° West 378 435 30,900 -968 Descending Los Angeles Center
Wed 12:17:57 PM 34.3106 -115.6586 247° West 374 430 29,900 -1,016 Descending Los Angeles Center
Wed 12:18:59 PM 34.2639 -115.7917 247° West 361 415 28,800 -1,016 Descending Los Angeles Center
Wed 12:20:01 PM 34.2244 -115.9056 247° West 362 417 27,800 -871 Descending Los Angeles Center
Wed 12:21:03 PM 34.1850 -116.0161 247° West 360 414 27,000 -726 Descending Los Angeles Center
Wed 12:22:05 PM 34.1461 -116.1269 247° West 361 415 26,300 -1,210 Descending Los Angeles Center
Wed 12:23:07 PM 34.1089 -116.2342 247° West 358 412 24,500 -1,597 Descending Los Angeles Center
Wed 12:24:09 PM 34.0714 -116.3394 247° West 349 402 23,000 -1,694 Descending Los Angeles Center
Wed 12:25:11 PM 34.0253 -116.4692 247° West 350 403 21,000 -1,935 Descending Los Angeles Center
Wed 12:26:13 PM 33.9878 -116.5750 247° West 347 399 19,000 -1,887 Descending Los Angeles Center
Wed 12:27:15 PM 33.9508 -116.6769 246° West 339 390 17,100 -1,762 Descending Los Angeles Center
Wed 12:28:19 PM 33.9156 -116.7753 247° West 331 381 15,300 -1,500 Descending Los Angeles Center
Wed 12:29:19 PM 33.8936 -116.8747 255° West 314 361 14,000 -1,641 Descending Los Angeles Center
Wed 12:30:16 PM 33.8833 -116.9833 264° West 307 353 12,100 -1,026 Descending Southern California TRACON
Wed 12:31:16 PM 33.8667 -117.0833 259° West 307 353 12,000 -600 Descending Southern California TRACON
Wed 12:32:16 PM 33.8500 -117.1833 259° West 302 348 10,900 -1,150 Descending Southern California TRACON
Wed 12:33:16 PM 33.8333 -117.2833 259° West 287 330 9,700 -1,350 Descending Southern California TRACON
Wed 12:34:16 PM 33.8167 -117.3667 256° West 272 313 8,200 -843 Descending Southern California TRACON
Wed 12:35:17 PM 33.8000 -117.4500 256° West 272 313 8,000 -248 Descending Southern California TRACON
Wed 12:36:17 PM 33.7833 -117.5500 259° West 255 293 7,700 -316 Descending Southern California TRACON
Wed 12:36:33 PM 33.7869 -117.5522 333° Northwest 264 304 7,600 -1,077 Descending Los Angeles Center
Wed 12:37:35 PM 33.8028 -117.6325 283° West 212 244 6,300 -1,385 Descending Los Angeles Center
Wed 12:38:17 PM 33.8167 -117.6833 288° West 204 235 5,200 -1,456 Descending Southern California TRACON
Wed 12:39:18 PM 33.8333 -117.7333 292° West 215 247 3,800 -1,140 Descending Southern California TRACON
Wed 12:40:18 PM 33.8000 -117.7833 231° Southwest 195 224 2,900 -950 Descending Southern California TRACON
Wed 12:41:18 PM 33.7667 -117.8167 220° Southwest 178 205 1,900 -1,000 Descending Southern California TRACON

Login

Don't have an account? Register now (free) for customized features, flight alerts, and more!